sensor_id;sensor_type;location;lat;lon;timestamp;pressure;altitude;pressure_sealevel;temperature;humidity
33404;BME280;19751;40.274;18.268;2023-09-19T00:00:42;101112.06;;;24.23;100.00
33404;BME280;19751;40.274;18.268;2023-09-19T00:03:09;101110.38;;;24.22;100.00
33404;BME280;19751;40.274;18.268;2023-09-19T00:05:37;101107.91;;;24.20;100.00
33404;BME280;19751;40.274;18.268;2023-09-19T00:08:09;101105.44;;;24.14;100.00
33404;BME280;19751;40.274;18.268;2023-09-19T00:10:35;101102.38;;;24.10;100.00
33404;BME280;19751;40.274;18.268;2023-09-19T00:13:04;101106.50;;;24.08;100.00
33404;BME280;19751;40.274;18.268;2023-09-19T00:15:31;101101.28;;;24.11;100.00
33404;BME280;19751;40.274;18.268;2023-09-19T00:18:01;101099.66;;;24.15;100.00
33404;BME280;19751;40.274;18.268;2023-09-19T00:20:27;101096.59;;;24.17;100.00
33404;BME280;19751;40.274;18.268;2023-09-19T00:22:55;101084.78;;;24.16;100.00
33404;BME280;19751;40.274;18.268;2023-09-19T00:25:20;101083.94;;;24.16;100.00
33404;BME280;19751;40.274;18.268;2023-09-19T00:27:46;101080.91;;;24.12;100.00
33404;BME280;19751;40.274;18.268;2023-09-19T00:30:16;101086.41;;;24.07;100.00
33404;BME280;19751;40.274;18.268;2023-09-19T00:32:49;101084.75;;;24.06;100.00
33404;BME280;19751;40.274;18.268;2023-09-19T00:35:20;101078.16;;;24.07;100.00
33404;BME280;19751;40.274;18.268;2023-09-19T00:37:45;101068.78;;;24.08;100.00
33404;BME280;19751;40.274;18.268;2023-09-19T00:40:11;101069.38;;;24.10;100.00
33404;BME280;19751;40.274;18.268;2023-09-19T00:42:41;101069.09;;;24.12;100.00
33404;BME280;19751;40.274;18.268;2023-09-19T00:45:09;101063.56;;;24.12;100.00
33404;BME280;19751;40.274;18.268;2023-09-19T00:47:37;101050.94;;;24.11;100.00
33404;BME280;19751;40.274;18.268;2023-09-19T00:50:05;101046.78;;;24.13;100.00
33404;BME280;19751;40.274;18.268;2023-09-19T00:52:34;101036.63;;;24.19;100.00
33404;BME280;19751;40.274;18.268;2023-09-19T00:55:02;101039.09;;;24.20;100.00
33404;BME280;19751;40.274;18.268;2023-09-19T00:57:29;101030.56;;;24.22;100.00
33404;BME280;19751;40.274;18.268;2023-09-19T00:59:55;101029.72;;;24.16;100.00
33404;BME280;19751;40.274;18.268;2023-09-19T01:02:22;101025.88;;;24.12;100.00
33404;BME280;19751;40.274;18.268;2023-09-19T01:04:48;101028.34;;;24.09;100.00
33404;BME280;19751;40.274;18.268;2023-09-19T01:07:14;101036.59;;;24.09;100.00
33404;BME280;19751;40.274;18.268;2023-09-19T01:09:43;101039.09;;;24.10;100.00
33404;BME280;19751;40.274;18.268;2023-09-19T01:12:09;101033.03;;;24.13;100.00
33404;BME280;19751;40.274;18.268;2023-09-19T01:15:03;101050.09;;;24.15;100.00
33404;BME280;19751;40.274;18.268;2023-09-19T01:17:46;101037.16;;;24.11;100.00
33404;BME280;19751;40.274;18.268;2023-09-19T01:20:32;101030.84;;;24.10;100.00
33404;BME280;19751;40.274;18.268;2023-09-19T01:23:13;101016.50;;;24.13;100.00
33404;BME280;19751;40.274;18.268;2023-09-19T01:28:32;101015.44;;;24.19;100.00
33404;BME280;19751;40.274;18.268;2023-09-19T01:31:04;101009.94;;;24.19;100.00
33404;BME280;19751;40.274;18.268;2023-09-19T01:33:57;101005.78;;;24.17;100.00
33404;BME280;19751;40.274;18.268;2023-09-19T01:36:27;101006.63;;;24.17;100.00
33404;BME280;19751;40.274;18.268;2023-09-19T01:38:55;100993.41;;;24.19;100.00
33404;BME280;19751;40.274;18.268;2023-09-19T01:41:38;100994.53;;;24.18;100.00
33404;BME280;19751;40.274;18.268;2023-09-19T01:44:09;100993.94;;;24.21;100.00
33404;BME280;19751;40.274;18.268;2023-09-19T01:46:40;100991.22;;;24.21;100.00
33404;BME280;19751;40.274;18.268;2023-09-19T01:49:32;100986.81;;;24.15;100.00
33404;BME280;19751;40.274;18.268;2023-09-19T01:52:05;100981.59;;;24.14;100.00
33404;BME280;19751;40.274;18.268;2023-09-19T01:54:41;100987.91;;;24.14;100.00
33404;BME280;19751;40.274;18.268;2023-09-19T01:57:18;100977.72;;;24.15;100.00
33404;BME280;19751;40.274;18.268;2023-09-19T01:59:52;100984.06;;;24.15;100.00
33404;BME280;19751;40.274;18.268;2023-09-19T02:02:21;100978.84;;;24.14;100.00
33404;BME280;19751;40.274;18.268;2023-09-19T02:04:48;100979.91;;;24.13;100.00
33404;BME280;19751;40.274;18.268;2023-09-19T02:07:16;100980.19;;;24.11;100.00
33404;BME280;19751;40.274;18.268;2023-09-19T02:09:42;100974.41;;;24.13;100.00
33404;BME280;19751;40.274;18.268;2023-09-19T02:12:09;100977.44;;;24.11;100.00
33404;BME280;19751;40.274;18.268;2023-09-19T02:14:35;100975.25;;;24.08;100.00
33404;BME280;19751;40.274;18.268;2023-09-19T02:17:02;100976.88;;;24.04;100.00
33404;BME280;19751;40.274;18.268;2023-09-19T02:19:32;100972.78;;;24.01;100.00
33404;BME280;19751;40.274;18.268;2023-09-19T02:21:59;100974.13;;;23.99;100.00
33404;BME280;19751;40.274;18.268;2023-09-19T02:24:25;100977.16;;;23.97;100.00
33404;BME280;19751;40.274;18.268;2023-09-19T02:26:52;100976.59;;;24.00;100.00
33404;BME280;19751;40.274;18.268;2023-09-19T02:29:17;100986.25;;;24.03;100.00
33404;BME280;19751;40.274;18.268;2023-09-19T02:31:43;100988.47;;;24.06;100.00
33404;BME280;19751;40.274;18.268;2023-09-19T02:34:08;100980.75;;;24.03;100.00
33404;BME280;19751;40.274;18.268;2023-09-19T02:36:35;100979.63;;;24.04;100.00
33404;BME280;19751;40.274;18.268;2023-09-19T02:39:01;100975.25;;;24.03;100.00
33404;BME280;19751;40.274;18.268;2023-09-19T02:41:26;100978.28;;;24.01;100.00
33404;BME280;19751;40.274;18.268;2023-09-19T02:43:54;100978.00;;;23.98;100.00
33404;BME280;19751;40.274;18.268;2023-09-19T02:46:20;100984.56;;;23.97;100.00
33404;BME280;19751;40.274;18.268;2023-09-19T02:48:45;100978.53;;;23.95;100.00
33404;BME280;19751;40.274;18.268;2023-09-19T02:51:11;100983.47;;;23.93;100.00
33404;BME280;19751;40.274;18.268;2023-09-19T02:53:36;100984.56;;;23.92;100.00
33404;BME280;19751;40.274;18.268;2023-09-19T02:56:02;100986.22;;;23.88;100.00
33404;BME280;19751;40.274;18.268;2023-09-19T02:58:29;100991.72;;;23.88;100.00
33404;BME280;19751;40.274;18.268;2023-09-19T03:00:55;100990.06;;;23.87;100.00
33404;BME280;19751;40.274;18.268;2023-09-19T03:03:22;100985.69;;;23.86;100.00
33404;BME280;19751;40.274;18.268;2023-09-19T03:05:48;100988.13;;;23.82;100.00
33404;BME280;19751;40.274;18.268;2023-09-19T03:08:14;100984.56;;;23.81;100.00
33404;BME280;19751;40.274;18.268;2023-09-19T03:10:46;100987.31;;;23.76;100.00
33404;BME280;19751;40.274;18.268;2023-09-19T03:13:12;100985.34;;;23.72;100.00
33404;BME280;19751;40.274;18.268;2023-09-19T03:15:41;100983.69;;;23.66;100.00
33404;BME280;19751;40.274;18.268;2023-09-19T03:18:09;100992.75;;;23.66;100.00
33404;BME280;19751;40.274;18.268;2023-09-19T03:20:34;100984.19;;;23.63;100.00
33404;BME280;19751;40.274;18.268;2023-09-19T03:22:59;100988.34;;;23.60;100.00
33404;BME280;19751;40.274;18.268;2023-09-19T03:25:25;100987.75;;;23.58;100.00
33404;BME280;19751;40.274;18.268;2023-09-19T03:27:51;101003.44;;;23.57;100.00
33404;BME280;19751;40.274;18.268;2023-09-19T03:30:16;100997.66;;;23.54;100.00
33404;BME280;19751;40.274;18.268;2023-09-19T03:32:46;100997.66;;;23.54;100.00
33404;BME280;19751;40.274;18.268;2023-09-19T03:35:12;100996.53;;;23.55;100.00
33404;BME280;19751;40.274;18.268;2023-09-19T03:37:40;100994.63;;;23.55;100.00
33404;BME280;19751;40.274;18.268;2023-09-19T03:40:07;100998.75;;;23.53;100.00
33404;BME280;19751;40.274;18.268;2023-09-19T03:42:33;101010.03;;;23.56;100.00
33404;BME280;19751;40.274;18.268;2023-09-19T03:45:01;101010.34;;;23.60;100.00
33404;BME280;19751;40.274;18.268;2023-09-19T03:47:31;101003.16;;;23.59;100.00
33404;BME280;19751;40.274;18.268;2023-09-19T03:49:56;101012.78;;;23.56;100.00
33404;BME280;19751;40.274;18.268;2023-09-19T03:52:22;101023.22;;;23.54;100.00
33404;BME280;19751;40.274;18.268;2023-09-19T03:54:47;101019.09;;;23.52;100.00
33404;BME280;19751;40.274;18.268;2023-09-19T03:57:12;101021.84;;;23.52;100.00
33404;BME280;19751;40.274;18.268;2023-09-19T03:59:41;101022.91;;;23.51;100.00
33404;BME280;19751;40.274;18.268;2023-09-19T04:02:08;101032.03;;;23.51;100.00
33404;BME280;19751;40.274;18.268;2023-09-19T04:04:37;101038.34;;;23.52;100.00
33404;BME280;19751;40.274;18.268;2023-09-19T04:07:03;101032.53;;;23.48;100.00
33404;BME280;19751;40.274;18.268;2023-09-19T04:09:28;101041.31;;;23.45;100.00
33404;BME280;19751;40.274;18.268;2023-09-19T04:11:54;101038.56;;;23.40;100.00
33404;BME280;19751;40.274;18.268;2023-09-19T04:14:19;101039.38;;;23.36;100.00
33404;BME280;19751;40.274;18.268;2023-09-19T04:16:45;101039.63;;;23.34;100.00
33404;BME280;19751;40.274;18.268;2023-09-19T04:19:10;101044.28;;;23.33;100.00
33404;BME280;19751;40.274;18.268;2023-09-19T04:21:36;101033.00;;;23.30;100.00
33404;BME280;19751;40.274;18.268;2023-09-19T04:24:01;101029.13;;;23.26;100.00
33404;BME280;19751;40.274;18.268;2023-09-19T04:26:27;101037.38;;;23.26;100.00
33404;BME280;19751;40.274;18.268;2023-09-19T04:28:52;101041.22;;;23.25;100.00
33404;BME280;19751;40.274;18.268;2023-09-19T04:31:18;101037.06;;;23.22;100.00
33404;BME280;19751;40.274;18.268;2023-09-19T04:33:44;101031.03;;;23.20;100.00
33404;BME280;19751;40.274;18.268;2023-09-19T04:36:10;101026.88;;;23.18;100.00
33404;BME280;19751;40.274;18.268;2023-09-19T04:38:35;101048.59;;;23.14;100.00
33404;BME280;19751;40.274;18.268;2023-09-19T04:41:01;101042.81;;;23.11;100.00
33404;BME280;19751;40.274;18.268;2023-09-19T04:43:27;101042.81;;;23.11;100.00
33404;BME280;19751;40.274;18.268;2023-09-19T04:45:53;101044.72;;;23.10;100.00
33404;BME280;19751;40.274;18.268;2023-09-19T04:48:22;101048.53;;;23.09;100.00
33404;BME280;19751;40.274;18.268;2023-09-19T04:50:49;101052.38;;;23.08;100.00
33404;BME280;19751;40.274;18.268;2023-09-19T04:53:14;101059.53;;;23.09;100.00
33404;BME280;19751;40.274;18.268;2023-09-19T04:55:40;101057.06;;;23.07;100.00
33404;BME280;19751;40.274;18.268;2023-09-19T04:58:05;101066.13;;;23.08;100.00
33404;BME280;19751;40.274;18.268;2023-09-19T05:00:31;101068.06;;;23.07;100.00
33404;BME280;19751;40.274;18.268;2023-09-19T05:03:00;101066.94;;;23.08;100.00
33404;BME280;19751;40.274;18.268;2023-09-19T05:05:26;101070.53;;;23.09;100.00
33404;BME280;19751;40.274;18.268;2023-09-19T05:07:52;101073.53;;;23.07;100.00
33404;BME280;19751;40.274;18.268;2023-09-19T05:10:19;101080.66;;;23.03;100.00
33404;BME280;19751;40.274;18.268;2023-09-19T05:12:45;101077.38;;;23.06;100.00
33404;BME280;19751;40.274;18.268;2023-09-19T05:15:13;101079.34;;;23.11;100.00
33404;BME280;19751;40.274;18.268;2023-09-19T05:17:40;101085.69;;;23.17;100.00
33404;BME280;19751;40.274;18.268;2023-09-19T05:20:06;101087.09;;;23.19;100.00
33404;BME280;19751;40.274;18.268;2023-09-19T05:22:41;101072.25;;;23.20;100.00
33404;BME280;19751;40.274;18.268;2023-09-19T05:25:09;101076.66;;;23.21;100.00
33404;BME280;19751;40.274;18.268;2023-09-19T05:27:35;101082.72;;;23.23;100.00
33404;BME280;19751;40.274;18.268;2023-09-19T05:30:00;101086.00;;;23.25;100.00
33404;BME280;19751;40.274;18.268;2023-09-19T05:32:26;101094.28;;;23.30;100.00
33404;BME280;19751;40.274;18.268;2023-09-19T05:34:51;101088.84;;;23.36;100.00
33404;BME280;19751;40.274;18.268;2023-09-19T05:37:19;101091.03;;;23.39;100.00
33404;BME280;19751;40.274;18.268;2023-09-19T05:39:44;101094.34;;;23.41;100.00
33404;BME280;19751;40.274;18.268;2023-09-19T05:42:10;101093.00;;;23.43;100.00
33404;BME280;19751;40.274;18.268;2023-09-19T05:44:35;101099.88;;;23.46;100.00
33404;BME280;19751;40.274;18.268;2023-09-19T05:47:02;101093.84;;;23.49;100.00
33404;BME280;19751;40.274;18.268;2023-09-19T05:49:28;101097.72;;;23.53;100.00
33404;BME280;19751;40.274;18.268;2023-09-19T05:51:53;101093.59;;;23.55;100.00
33404;BME280;19751;40.274;18.268;2023-09-19T05:54:20;101091.13;;;23.59;100.00
33404;BME280;19751;40.274;18.268;2023-09-19T05:56:46;101086.56;;;23.70;100.00
33404;BME280;19751;40.274;18.268;2023-09-19T05:59:12;101085.75;;;23.79;100.00
33404;BME280;19751;40.274;18.268;2023-09-19T06:01:42;101081.94;;;23.86;100.00
33404;BME280;19751;40.274;18.268;2023-09-19T06:04:07;101080.03;;;23.91;100.00
33404;BME280;19751;40.274;18.268;2023-09-19T06:06:33;101075.34;;;23.97;100.00
33404;BME280;19751;40.274;18.268;2023-09-19T06:09:04;101081.72;;;24.08;100.00
33404;BME280;19751;40.274;18.268;2023-09-19T06:11:31;101080.91;;;24.17;100.00
33404;BME280;19751;40.274;18.268;2023-09-19T06:14:00;101076.00;;;24.24;100.00
33404;BME280;19751;40.274;18.268;2023-09-19T06:16:28;101078.75;;;24.29;100.00
33404;BME280;19751;40.274;18.268;2023-09-19T06:18:54;101074.91;;;24.36;100.00
33404;BME280;19751;40.274;18.268;2023-09-19T06:21:24;101074.13;;;24.45;100.00
33404;BME280;19751;40.274;18.268;2023-09-19T06:23:49;101076.03;;;24.55;100.00
33404;BME280;19751;40.274;18.268;2023-09-19T06:26:15;101065.59;;;24.62;100.00
33404;BME280;19751;40.274;18.268;2023-09-19T06:28:40;101058.72;;;24.70;100.00
33404;BME280;19751;40.274;18.268;2023-09-19T06:31:06;101060.09;;;24.77;100.00
33404;BME280;19751;40.274;18.268;2023-09-19T06:33:35;101062.53;;;24.84;100.00
33404;BME280;19751;40.274;18.268;2023-09-19T06:36:08;101065.59;;;24.93;100.00
33404;BME280;19751;40.274;18.268;2023-09-19T06:38:33;101059.78;;;24.99;100.00
33404;BME280;19751;40.274;18.268;2023-09-19T06:41:02;101057.28;;;25.08;100.00
33404;BME280;19751;40.274;18.268;2023-09-19T06:43:30;101063.91;;;25.17;100.00
33404;BME280;19751;40.274;18.268;2023-09-19T06:45:56;101070.50;;;25.26;100.00
33404;BME280;19751;40.274;18.268;2023-09-19T06:48:22;101060.00;;;25.34;100.00
33404;BME280;19751;40.274;18.268;2023-09-19T06:50:50;101061.91;;;25.43;100.00
33404;BME280;19751;40.274;18.268;2023-09-19T06:53:16;101055.81;;;25.51;100.00
33404;BME280;19751;40.274;18.268;2023-09-19T06:55:42;101056.31;;;25.59;98.88
33404;BME280;19751;40.274;18.268;2023-09-19T06:58:09;101064.00;;;25.67;97.71
33404;BME280;19751;40.274;18.268;2023-09-19T07:00:36;101062.59;;;25.74;96.87
33404;BME280;19751;40.274;18.268;2023-09-19T07:03:03;101059.84;;;25.85;93.93
33404;BME280;19751;40.274;18.268;2023-09-19T07:05:31;101055.38;;;25.94;92.44
33404;BME280;19751;40.274;18.268;2023-09-19T07:07:58;101060.81;;;26.04;90.66
33404;BME280;19751;40.274;18.268;2023-09-19T07:10:25;101055.25;;;26.14;88.31
33404;BME280;19751;40.274;18.268;2023-09-19T07:12:59;101060.16;;;26.22;80.68
33404;BME280;19751;40.274;18.268;2023-09-19T07:15:26;101062.59;;;26.29;75.52
33404;BME280;19751;40.274;18.268;2023-09-19T07:17:52;101061.44;;;26.35;74.41
33404;BME280;19751;40.274;18.268;2023-09-19T07:20:22;101063.34;;;26.40;72.57
33404;BME280;19751;40.274;18.268;2023-09-19T07:22:49;101076.59;;;26.43;72.11
33404;BME280;19751;40.274;18.268;2023-09-19T07:25:16;101070.22;;;26.47;72.22
33404;BME280;19751;40.274;18.268;2023-09-19T07:27:41;101060.53;;;26.50;70.90
33404;BME280;19751;40.274;18.268;2023-09-19T07:30:08;101063.28;;;26.55;69.50
33404;BME280;19751;40.274;18.268;2023-09-19T07:32:34;101066.22;;;26.64;67.10
33404;BME280;19751;40.274;18.268;2023-09-19T07:35:04;101068.66;;;26.70;65.05
33404;BME280;19751;40.274;18.268;2023-09-19T07:37:31;101065.03;;;26.75;62.09
33404;BME280;19751;40.274;18.268;2023-09-19T07:39:59;101066.31;;;26.88;57.35
33404;BME280;19751;40.274;18.268;2023-09-19T07:42:24;101064.25;;;26.98;56.60
33404;BME280;19751;40.274;18.268;2023-09-19T07:44:51;101061.16;;;27.05;56.81
33404;BME280;19751;40.274;18.268;2023-09-19T07:47:16;101066.34;;;27.12;57.06
33404;BME280;19751;40.274;18.268;2023-09-19T07:49:42;101059.44;;;27.14;57.41
33404;BME280;19751;40.274;18.268;2023-09-19T07:52:09;101061.31;;;27.19;56.79
33404;BME280;19751;40.274;18.268;2023-09-19T07:54:35;101055.72;;;27.24;56.31
33404;BME280;19751;40.274;18.268;2023-09-19T07:57:02;101054.84;;;27.29;55.12
33404;BME280;19751;40.274;18.268;2023-09-19T07:59:28;101050.66;;;27.31;55.27
33404;BME280;19751;40.274;18.268;2023-09-19T08:01:53;101050.66;;;27.31;55.51
33404;BME280;19751;40.274;18.268;2023-09-19T08:04:19;101054.78;;;27.34;55.89
33404;BME280;19751;40.274;18.268;2023-09-19T08:06:45;101046.38;;;27.44;53.31
33404;BME280;19751;40.274;18.268;2023-09-19T08:09:10;101044.59;;;27.53;52.69
33404;BME280;19751;40.274;18.268;2023-09-19T08:11:37;101040.09;;;27.57;52.30
33404;BME280;19751;40.274;18.268;2023-09-19T08:14:04;101051.34;;;27.66;51.79
33404;BME280;19751;40.274;18.268;2023-09-19T08:16:31;101051.56;;;27.74;51.77
33404;BME280;19751;40.274;18.268;2023-09-19T08:18:56;101052.81;;;27.82;51.36
33404;BME280;19751;40.274;18.268;2023-09-19T08:21:22;101059.03;;;27.93;51.12
33404;BME280;19751;40.274;18.268;2023-09-19T08:23:49;101061.97;;;28.02;50.94
33404;BME280;19751;40.274;18.268;2023-09-19T08:26:15;101061.59;;;28.08;50.06
33404;BME280;19751;40.274;18.268;2023-09-19T08:28:41;101068.38;;;28.16;49.64
33404;BME280;19751;40.274;18.268;2023-09-19T08:31:07;101062.84;;;28.16;49.96
33404;BME280;19751;40.274;18.268;2023-09-19T08:33:35;101070.56;;;28.19;49.89
33404;BME280;19751;40.274;18.268;2023-09-19T08:36:02;101072.16;;;28.25;49.50
33404;BME280;19751;40.274;18.268;2023-09-19T08:38:31;101067.94;;;28.28;49.66
33404;BME280;19751;40.274;18.268;2023-09-19T08:41:04;101076.72;;;28.35;49.74
33404;BME280;19751;40.274;18.268;2023-09-19T08:43:30;101075.31;;;28.37;49.93
33404;BME280;19751;40.274;18.268;2023-09-19T08:46:05;101075.59;;;28.36;50.10
33404;BME280;19751;40.274;18.268;2023-09-19T08:48:34;101070.66;;;28.33;50.15
33404;BME280;19751;40.274;18.268;2023-09-19T08:51:03;101070.13;;;28.31;50.43
33404;BME280;19751;40.274;18.268;2023-09-19T08:56:00;101056.44;;;28.39;50.04
33404;BME280;19751;40.274;18.268;2023-09-19T08:58:33;101061.59;;;28.46;49.69
33404;BME280;19751;40.274;18.268;2023-09-19T09:01:00;101057.03;;;28.55;48.64
33404;BME280;19751;40.274;18.268;2023-09-19T09:03:29;101054.69;;;28.62;48.23
33404;BME280;19751;40.274;18.268;2023-09-19T09:05:57;101051.91;;;28.62;48.16
33404;BME280;19751;40.274;18.268;2023-09-19T09:08:24;101049.06;;;28.67;47.86
33404;BME280;19751;40.274;18.268;2023-09-19T09:10:50;101045.06;;;28.73;47.60
33404;BME280;19751;40.274;18.268;2023-09-19T09:13:17;101037.88;;;28.72;47.50
33404;BME280;19751;40.274;18.268;2023-09-19T09:15:43;101038.69;;;28.73;47.08
33404;BME280;19751;40.274;18.268;2023-09-19T09:18:10;101036.44;;;28.75;47.16
33404;BME280;19751;40.274;18.268;2023-09-19T09:20:36;101029.28;;;28.88;46.29
33404;BME280;19751;40.274;18.268;2023-09-19T09:23:01;101027.59;;;29.06;45.87
33404;BME280;19751;40.274;18.268;2023-09-19T09:25:53;101028.22;;;29.16;45.55
33404;BME280;19751;40.274;18.268;2023-09-19T09:28:28;101025.44;;;29.30;45.12
33404;BME280;19751;40.274;18.268;2023-09-19T09:30:55;101027.81;;;29.37;44.63
33404;BME280;19751;40.274;18.268;2023-09-19T09:33:21;101017.22;;;29.39;44.85
33404;BME280;19751;40.274;18.268;2023-09-19T09:35:51;101014.84;;;29.46;44.28
33404;BME280;19751;40.274;18.268;2023-09-19T09:38:21;101021.09;;;29.52;44.47
33404;BME280;19751;40.274;18.268;2023-09-19T09:40:52;101010.22;;;29.55;44.58
33404;BME280;19751;40.274;18.268;2023-09-19T09:43:29;101014.66;;;29.56;44.33
33404;BME280;19751;40.274;18.268;2023-09-19T09:46:17;101014.03;;;29.59;44.00
33404;BME280;19751;40.274;18.268;2023-09-19T09:48:46;101002.94;;;29.59;43.80
33404;BME280;19751;40.274;18.268;2023-09-19T09:51:30;101002.63;;;29.61;43.89
33404;BME280;19751;40.274;18.268;2023-09-19T09:54:13;101005.25;;;29.80;42.76
33404;BME280;19751;40.274;18.268;2023-09-19T09:56:59;101004.31;;;29.84;42.89
33404;BME280;19751;40.274;18.268;2023-09-19T09:59:56;100989.94;;;29.82;42.67
33404;BME280;19751;40.274;18.268;2023-09-19T10:02:41;100998.28;;;29.82;42.59
33404;BME280;19751;40.274;18.268;2023-09-19T10:05:25;100997.81;;;30.03;42.35
33404;BME280;19751;40.274;18.268;2023-09-19T10:07:54;100978.44;;;30.11;42.39
33404;BME280;19751;40.274;18.268;2023-09-19T10:10:33;100984.09;;;30.06;42.12
33404;BME280;19751;40.274;18.268;2023-09-19T10:13:09;100986.38;;;30.04;42.67
33404;BME280;19751;40.274;18.268;2023-09-19T10:15:42;100979.72;;;30.14;42.17
33404;BME280;19751;40.274;18.268;2023-09-19T10:18:14;100985.50;;;30.17;41.77
33404;BME280;19751;40.274;18.268;2023-09-19T10:20:45;100972.16;;;30.19;41.63
33404;BME280;19751;40.274;18.268;2023-09-19T10:23:12;100962.81;;;30.15;41.92
33404;BME280;19751;40.274;18.268;2023-09-19T10:25:42;100963.38;;;30.12;42.69
33404;BME280;19751;40.274;18.268;2023-09-19T10:28:13;100964.44;;;30.16;42.25
33404;BME280;19751;40.274;18.268;2023-09-19T10:30:43;100958.81;;;30.30;42.70
33404;BME280;19751;40.274;18.268;2023-09-19T10:33:23;100962.81;;;30.46;42.61
33404;BME280;19751;40.274;18.268;2023-09-19T10:35:52;100962.81;;;30.46;42.86
33404;BME280;19751;40.274;18.268;2023-09-19T10:38:24;100960.03;;;30.46;42.82
33404;BME280;19751;40.274;18.268;2023-09-19T10:40:56;100951.38;;;30.48;43.25
33404;BME280;19751;40.274;18.268;2023-09-19T10:43:32;100956.31;;;30.51;43.13
33404;BME280;19751;40.274;18.268;2023-09-19T10:46:03;100952.63;;;30.64;42.92
33404;BME280;19751;40.274;18.268;2023-09-19T10:48:32;100951.09;;;30.81;43.05
33404;BME280;19751;40.274;18.268;2023-09-19T10:53:41;100952.91;;;31.34;42.84
33404;BME280;19751;40.274;18.268;2023-09-19T10:56:09;100960.31;;;31.56;42.72
33404;BME280;19751;40.274;18.268;2023-09-19T10:58:43;100948.06;;;31.65;42.59
33404;BME280;19751;40.274;18.268;2023-09-19T11:01:12;100949.53;;;31.63;41.93
33404;BME280;19751;40.274;18.268;2023-09-19T11:03:40;100959.03;;;31.62;42.10
33404;BME280;19751;40.274;18.268;2023-09-19T11:06:18;100957.69;;;31.59;42.15
33404;BME280;19751;40.274;18.268;2023-09-19T11:08:59;100954.44;;;31.57;42.19
33404;BME280;19751;40.274;18.268;2023-09-19T11:11:42;100959.38;;;31.69;42.38
33404;BME280;19751;40.274;18.268;2023-09-19T11:14:37;100961.81;;;31.71;41.93
33404;BME280;19751;40.274;18.268;2023-09-19T11:30:36;100947.25;;;31.74;42.18
33404;BME280;19751;40.274;18.268;2023-09-19T11:33:24;100939.19;;;31.81;42.02
33404;BME280;19751;40.274;18.268;2023-09-19T11:36:11;100933.31;;;31.74;42.10
33404;BME280;19751;40.274;18.268;2023-09-19T11:43:49;100918.44;;;31.96;41.72
33404;BME280;19751;40.274;18.268;2023-09-19T11:46:20;100916.59;;;32.08;41.08
33404;BME280;19751;40.274;18.268;2023-09-19T11:48:49;100917.09;;;32.10;41.13
33404;BME280;19751;40.274;18.268;2023-09-19T11:51:17;100912.16;;;32.16;40.72
33404;BME280;19751;40.274;18.268;2023-09-19T11:53:58;100909.03;;;32.17;40.81
33404;BME280;19751;40.274;18.268;2023-09-19T11:56:28;100893.44;;;32.25;40.91
33404;BME280;19751;40.274;18.268;2023-09-19T11:58:55;100896.72;;;32.36;40.44
33404;BME280;19751;40.274;18.268;2023-09-19T12:01:28;100889.50;;;32.44;40.09
33404;BME280;19751;40.274;18.268;2023-09-19T12:03:56;100889.94;;;32.54;40.43
33404;BME280;19751;40.274;18.268;2023-09-19T12:06:23;100891.72;;;32.59;40.30
33404;BME280;19751;40.274;18.268;2023-09-19T12:08:49;100885.97;;;32.64;39.46
33404;BME280;19751;40.274;18.268;2023-09-19T12:11:17;100887.94;;;32.63;38.87
33404;BME280;19751;40.274;18.268;2023-09-19T12:13:47;100886.69;;;32.52;38.68
33404;BME280;19751;40.274;18.268;2023-09-19T12:16:14;100889.63;;;32.56;38.71
33404;BME280;19751;40.274;18.268;2023-09-19T12:18:40;100887.63;;;32.65;37.96
33404;BME280;19751;40.274;18.268;2023-09-19T12:21:24;100889.94;;;32.54;37.80
33404;BME280;19751;40.274;18.268;2023-09-19T12:26:26;100887.81;;;32.51;38.22
33404;BME280;19751;40.274;18.268;2023-09-19T12:28:54;100894.56;;;32.50;37.92
33404;BME280;19751;40.274;18.268;2023-09-19T12:31:21;100888.00;;;32.46;37.83
33404;BME280;19751;40.274;18.268;2023-09-19T12:33:53;100885.41;;;32.41;38.17
33404;BME280;19751;40.274;18.268;2023-09-19T12:36:23;100887.03;;;32.33;38.07
33404;BME280;19751;40.274;18.268;2023-09-19T12:38:56;100882.97;;;32.39;37.78
33404;BME280;19751;40.274;18.268;2023-09-19T12:41:25;100877.84;;;32.33;37.32
33404;BME280;19751;40.274;18.268;2023-09-19T12:43:53;100879.22;;;32.27;37.35
33404;BME280;19751;40.274;18.268;2023-09-19T12:46:22;100874.44;;;32.27;37.66
33404;BME280;19751;40.274;18.268;2023-09-19T12:49:19;100880.19;;;32.22;37.16
33404;BME280;19751;40.274;18.268;2023-09-19T12:51:46;100872.81;;;32.17;36.84
33404;BME280;19751;40.274;18.268;2023-09-19T12:54:12;100863.31;;;32.18;36.67
33404;BME280;19751;40.274;18.268;2023-09-19T12:56:43;100867.22;;;32.26;35.67
33404;BME280;19751;40.274;18.268;2023-09-19T12:59:15;100866.56;;;32.29;35.94
33404;BME280;19751;40.274;18.268;2023-09-19T13:01:42;100862.59;;;32.39;36.00
33404;BME280;19751;40.274;18.268;2023-09-19T13:04:21;100862.88;;;32.55;35.97
33404;BME280;19751;40.274;18.268;2023-09-19T13:06:55;100858.13;;;32.55;35.51
33404;BME280;19751;40.274;18.268;2023-09-19T13:09:26;100864.53;;;32.56;35.81
33404;BME280;19751;40.274;18.268;2023-09-19T13:12:35;100860.34;;;32.71;35.56
33404;BME280;19751;40.274;18.268;2023-09-19T13:15:10;100860.94;;;32.85;35.40